Elwood, Utah
Current Conditions -  °F | °C
As of 12:15 PM on Friday 28 Nov 2014 (Local Time) from KBMC Reporting Station
Clear Clear  
Wind Chill: 55°   Ceiling: Unl
Heat Index: 55°   Visibility: 10mi
Dew Point: 22°   Wind: 3mph
Humidity: 28%   Direction: 10°N
Pressure: 29.95"   Gusts: NA
Location:  41.6836°N, 112.26°W
Report Text: KBMC 281915Z AUTO 01003KT 10SM CLR 13/M05 A2995 RMK AO1 T01271053
Loading
Personal Weather Stations






























Interactive Weather Map New forecast layout! Learn more

10-Day Weather Forecast

Advertisements
Track Severe Weather on mobile